sensor_id;sensor_type;location;lat;lon;timestamp;pressure;altitude;pressure_sealevel;temperature;humidity
60049;BME280;66154;45.544;6.756;2024-03-07T00:04:35;87023.16;;;-1.40;65.86
60049;BME280;66154;45.544;6.756;2024-03-07T00:09:36;87020.91;;;-1.45;65.63
60049;BME280;66154;45.544;6.756;2024-03-07T00:14:37;87028.53;;;-1.52;65.66
60049;BME280;66154;45.544;6.756;2024-03-07T00:19:37;87023.69;;;-1.57;65.67
60049;BME280;66154;45.544;6.756;2024-03-07T00:24:38;87013.69;;;-1.62;65.90
60049;BME280;66154;45.544;6.756;2024-03-07T00:29:39;87018.03;;;-1.66;65.86
60049;BME280;66154;45.544;6.756;2024-03-07T00:34:39;87020.91;;;-1.71;65.65
60049;BME280;66154;45.544;6.756;2024-03-07T00:39:40;87017.88;;;-1.77;65.39
60049;BME280;66154;45.544;6.756;2024-03-07T00:44:41;87017.03;;;-1.85;65.50
60049;BME280;66154;45.544;6.756;2024-03-07T00:49:41;87007.78;;;-1.89;66.03
60049;BME280;66154;45.544;6.756;2024-03-07T00:54:42;87013.63;;;-1.92;65.86
60049;BME280;66154;45.544;6.756;2024-03-07T00:59:43;87005.84;;;-1.96;65.66
60049;BME280;66154;45.544;6.756;2024-03-07T01:04:43;87004.31;;;-2.00;65.50
60049;BME280;66154;45.544;6.756;2024-03-07T01:09:45;86999.84;;;-2.03;65.77
60049;BME280;66154;45.544;6.756;2024-03-07T01:14:46;86993.56;;;-2.06;65.81
60049;BME280;66154;45.544;6.756;2024-03-07T01:19:47;86988.34;;;-2.09;65.79
60049;BME280;66154;45.544;6.756;2024-03-07T01:24:47;86978.41;;;-2.11;65.47
60049;BME280;66154;45.544;6.756;2024-03-07T01:29:48;86982.75;;;-2.15;65.63
60049;BME280;66154;45.544;6.756;2024-03-07T01:34:49;86981.97;;;-2.19;65.45
60049;BME280;66154;45.544;6.756;2024-03-07T01:39:49;86983.00;;;-2.23;66.22
60049;BME280;66154;45.544;6.756;2024-03-07T01:44:50;86979.28;;;-2.26;66.22
60049;BME280;66154;45.544;6.756;2024-03-07T01:49:51;86973.75;;;-2.28;65.55
60049;BME280;66154;45.544;6.756;2024-03-07T01:54:52;86964.88;;;-2.30;65.35
60049;BME280;66154;45.544;6.756;2024-03-07T01:59:53;86956.34;;;-2.34;66.08
60049;BME280;66154;45.544;6.756;2024-03-07T02:04:53;86949.25;;;-2.41;65.57
60049;BME280;66154;45.544;6.756;2024-03-07T02:10:01;86934.81;;;-2.49;65.22
60049;BME280;66154;45.544;6.756;2024-03-07T02:15:02;86929.19;;;-2.54;65.42
60049;BME280;66154;45.544;6.756;2024-03-07T02:20:04;86929.16;;;-2.58;65.89
60049;BME280;66154;45.544;6.756;2024-03-07T02:25:07;86928.03;;;-2.60;65.97
60049;BME280;66154;45.544;6.756;2024-03-07T02:30:12;86923.22;;;-2.62;66.29
60049;BME280;66154;45.544;6.756;2024-03-07T02:35:12;86926.53;;;-2.61;66.19
60049;BME280;66154;45.544;6.756;2024-03-07T02:40:16;86920.63;;;-2.62;66.40
60049;BME280;66154;45.544;6.756;2024-03-07T02:45:16;86915.09;;;-2.64;65.88
60049;BME280;66154;45.544;6.756;2024-03-07T02:50:17;86913.56;;;-2.68;66.05
60049;BME280;66154;45.544;6.756;2024-03-07T02:55:18;86912.03;;;-2.73;66.39
60049;BME280;66154;45.544;6.756;2024-03-07T03:00:19;86906.47;;;-2.75;66.35
60049;BME280;66154;45.544;6.756;2024-03-07T03:05:19;86911.22;;;-2.77;66.95
60049;BME280;66154;45.544;6.756;2024-03-07T03:10:24;86900.53;;;-2.79;67.08
60049;BME280;66154;45.544;6.756;2024-03-07T03:15:31;86901.63;;;-2.80;65.75
60049;BME280;66154;45.544;6.756;2024-03-07T03:20:31;86898.66;;;-2.82;65.95
60049;BME280;66154;45.544;6.756;2024-03-07T03:25:35;86900.88;;;-2.81;65.95
60049;BME280;66154;45.544;6.756;2024-03-07T03:30:38;86897.16;;;-2.83;66.48
60049;BME280;66154;45.544;6.756;2024-03-07T03:35:39;86902.31;;;-2.83;65.91
60049;BME280;66154;45.544;6.756;2024-03-07T03:40:40;86893.47;;;-2.86;66.30
60049;BME280;66154;45.544;6.756;2024-03-07T03:45:41;86888.66;;;-2.87;66.41
60049;BME280;66154;45.544;6.756;2024-03-07T03:50:41;86884.94;;;-2.90;66.28
60049;BME280;66154;45.544;6.756;2024-03-07T03:55:42;86887.78;;;-2.95;66.38
60049;BME280;66154;45.544;6.756;2024-03-07T04:00:42;86880.38;;;-3.00;67.24
60049;BME280;66154;45.544;6.756;2024-03-07T04:05:43;86877.06;;;-3.00;65.28
60049;BME280;66154;45.544;6.756;2024-03-07T04:10:43;86879.28;;;-2.99;65.84
60049;BME280;66154;45.544;6.756;2024-03-07T04:15:44;86872.31;;;-2.98;66.34
60049;BME280;66154;45.544;6.756;2024-03-07T04:20:44;86870.84;;;-2.99;66.36
60049;BME280;66154;45.544;6.756;2024-03-07T04:25:45;86863.44;;;-3.01;66.41
60049;BME280;66154;45.544;6.756;2024-03-07T04:30:46;86867.13;;;-3.02;66.35
60049;BME280;66154;45.544;6.756;2024-03-07T04:35:49;86869.28;;;-3.04;66.08
60049;BME280;66154;45.544;6.756;2024-03-07T04:40:52;86865.25;;;-3.05;66.28
60049;BME280;66154;45.544;6.756;2024-03-07T04:45:54;86862.28;;;-3.07;65.94
60049;BME280;66154;45.544;6.756;2024-03-07T04:50:55;86857.81;;;-3.10;65.95
60049;BME280;66154;45.544;6.756;2024-03-07T04:55:57;86854.88;;;-3.08;65.70
60049;BME280;66154;45.544;6.756;2024-03-07T05:00:58;86851.66;;;-3.05;65.81
60049;BME280;66154;45.544;6.756;2024-03-07T05:05:58;86852.72;;;-3.06;65.71
60049;BME280;66154;45.544;6.756;2024-03-07T05:11:00;86843.50;;;-3.11;65.22
60049;BME280;66154;45.544;6.756;2024-03-07T05:16:01;86840.91;;;-3.11;65.48
60049;BME280;66154;45.544;6.756;2024-03-07T05:21:01;86842.78;;;-3.08;65.64
60049;BME280;66154;45.544;6.756;2024-03-07T05:26:22;86847.19;;;-3.08;65.43
60049;BME280;66154;45.544;6.756;2024-03-07T05:31:22;86851.25;;;-3.07;65.41
60049;BME280;66154;45.544;6.756;2024-03-07T05:36:23;86854.56;;;-3.07;65.31
60049;BME280;66154;45.544;6.756;2024-03-07T05:41:23;86854.09;;;-3.12;65.37
60049;BME280;66154;45.544;6.756;2024-03-07T05:46:24;86850.78;;;-3.13;65.67
60049;BME280;66154;45.544;6.756;2024-03-07T05:51:24;86847.06;;;-3.15;65.27
60049;BME280;66154;45.544;6.756;2024-03-07T05:56:25;86851.81;;;-3.17;65.54
60049;BME280;66154;45.544;6.756;2024-03-07T06:01:25;86855.09;;;-3.20;64.82
60049;BME280;66154;45.544;6.756;2024-03-07T06:06:28;86849.94;;;-3.20;65.13
60049;BME280;66154;45.544;6.756;2024-03-07T06:11:28;86853.59;;;-3.21;65.54
60049;BME280;66154;45.544;6.756;2024-03-07T06:16:30;86853.59;;;-3.21;65.48
60049;BME280;66154;45.544;6.756;2024-03-07T06:21:33;86854.00;;;-3.19;65.37
60049;BME280;66154;45.544;6.756;2024-03-07T06:26:36;86853.25;;;-3.20;65.37
60049;BME280;66154;45.544;6.756;2024-03-07T06:31:59;86869.41;;;-3.19;65.60
60049;BME280;66154;45.544;6.756;2024-03-07T06:37:00;86870.91;;;-3.18;65.31
60049;BME280;66154;45.544;6.756;2024-03-07T06:42:03;86869.06;;;-3.18;65.58
60049;BME280;66154;45.544;6.756;2024-03-07T06:47:04;86871.31;;;-3.16;65.49
60049;BME280;66154;45.544;6.756;2024-03-07T06:52:05;86887.09;;;-3.14;65.36
60049;BME280;66154;45.544;6.756;2024-03-07T06:57:06;86875.41;;;-3.12;65.23
60049;BME280;66154;45.544;6.756;2024-03-07T07:02:08;86869.91;;;-3.10;65.51
60049;BME280;66154;45.544;6.756;2024-03-07T07:07:09;86871.81;;;-3.07;65.86
60049;BME280;66154;45.544;6.756;2024-03-07T07:12:12;86872.63;;;-3.03;65.45
60049;BME280;66154;45.544;6.756;2024-03-07T07:17:15;86867.19;;;-2.98;65.35
60049;BME280;66154;45.544;6.756;2024-03-07T07:22:15;86859.25;;;-2.90;65.15
60049;BME280;66154;45.544;6.756;2024-03-07T07:27:15;86861.16;;;-2.83;65.01
60049;BME280;66154;45.544;6.756;2024-03-07T07:32:16;86857.03;;;-2.65;64.02
60049;BME280;66154;45.544;6.756;2024-03-07T07:37:16;86862.69;;;-2.52;62.78
60049;BME280;66154;45.544;6.756;2024-03-07T07:42:17;86860.91;;;-2.48;63.95
60049;BME280;66154;45.544;6.756;2024-03-07T07:47:18;86869.78;;;-2.46;64.64
60049;BME280;66154;45.544;6.756;2024-03-07T07:52:18;86867.66;;;-2.40;65.12
60049;BME280;66154;45.544;6.756;2024-03-07T07:57:18;86862.22;;;-2.35;65.00
60049;BME280;66154;45.544;6.756;2024-03-07T08:02:19;86864.13;;;-2.29;65.15
60049;BME280;66154;45.544;6.756;2024-03-07T08:07:23;86845.88;;;-2.20;65.35
60049;BME280;66154;45.544;6.756;2024-03-07T08:12:24;86846.00;;;-2.10;65.23
60049;BME280;66154;45.544;6.756;2024-03-07T08:17:24;86842.09;;;-1.97;64.81
60049;BME280;66154;45.544;6.756;2024-03-07T08:22:25;86834.88;;;-1.84;64.43
60049;BME280;66154;45.544;6.756;2024-03-07T08:27:26;86837.66;;;-1.66;64.49
60049;BME280;66154;45.544;6.756;2024-03-07T08:32:26;86826.41;;;-1.51;63.44
60049;BME280;66154;45.544;6.756;2024-03-07T08:37:27;86829.13;;;-1.37;63.43
60049;BME280;66154;45.544;6.756;2024-03-07T08:42:27;86832.22;;;-1.21;64.35
60049;BME280;66154;45.544;6.756;2024-03-07T08:47:28;86817.63;;;-1.07;65.47
60049;BME280;66154;45.544;6.756;2024-03-07T08:52:28;86819.22;;;-0.88;65.00
60049;BME280;66154;45.544;6.756;2024-03-07T08:57:29;86814.94;;;-0.70;64.39
60049;BME280;66154;45.544;6.756;2024-03-07T09:02:30;86815.06;;;-0.52;64.91
60049;BME280;66154;45.544;6.756;2024-03-07T09:07:31;86811.47;;;-0.37;64.90
60049;BME280;66154;45.544;6.756;2024-03-07T09:12:32;86816.00;;;-0.17;63.96
60049;BME280;66154;45.544;6.756;2024-03-07T09:17:33;86808.34;;;0.01;63.33
60049;BME280;66154;45.544;6.756;2024-03-07T09:22:33;86805.81;;;0.15;65.26
60049;BME280;66154;45.544;6.756;2024-03-07T09:27:34;86810.31;;;0.29;65.39
60049;BME280;66154;45.544;6.756;2024-03-07T09:32:35;86810.00;;;0.44;65.17
60049;BME280;66154;45.544;6.756;2024-03-07T09:37:35;86799.31;;;0.56;65.72
60049;BME280;66154;45.544;6.756;2024-03-07T09:42:46;86806.72;;;0.72;65.34
60049;BME280;66154;45.544;6.756;2024-03-07T09:47:49;86802.34;;;0.90;65.69
60049;BME280;66154;45.544;6.756;2024-03-07T09:52:55;86799.03;;;1.11;56.29
60049;BME280;66154;45.544;6.756;2024-03-07T09:57:58;86794.97;;;1.27;65.38
60049;BME280;66154;45.544;6.756;2024-03-07T10:03:08;86794.59;;;1.46;65.94
60049;BME280;66154;45.544;6.756;2024-03-07T10:08:09;86790.50;;;1.66;64.37
60049;BME280;66154;45.544;6.756;2024-03-07T10:13:11;86789.72;;;1.80;64.23
60049;BME280;66154;45.544;6.756;2024-03-07T10:18:12;86787.47;;;2.00;60.87
60049;BME280;66154;45.544;6.756;2024-03-07T10:23:23;86785.59;;;2.18;44.20
60049;BME280;66154;45.544;6.756;2024-03-07T10:28:23;86791.81;;;2.34;58.37
60049;BME280;66154;45.544;6.756;2024-03-07T10:33:27;86792.88;;;2.47;61.97
60049;BME280;66154;45.544;6.756;2024-03-07T10:38:28;86786.50;;;2.59;46.54
60049;BME280;66154;45.544;6.756;2024-03-07T10:43:29;86787.91;;;2.74;53.14
60049;BME280;66154;45.544;6.756;2024-03-07T10:48:36;86788.97;;;2.87;62.40
60049;BME280;66154;45.544;6.756;2024-03-07T11:03:55;86773.16;;;3.22;59.87
60049;BME280;66154;45.544;6.756;2024-03-07T11:08:57;86766.78;;;3.37;62.35
60049;BME280;66154;45.544;6.756;2024-03-07T11:13:58;86777.00;;;3.58;62.20
60049;BME280;66154;45.544;6.756;2024-03-07T11:19:18;86770.50;;;3.77;65.09
60049;BME280;66154;45.544;6.756;2024-03-07T11:24:28;86761.84;;;3.91;62.08
60049;BME280;66154;45.544;6.756;2024-03-07T11:29:52;86751.28;;;4.08;44.01
60049;BME280;66154;45.544;6.756;2024-03-07T11:34:53;86749.16;;;4.33;49.78
60049;BME280;66154;45.544;6.756;2024-03-07T11:39:54;86746.28;;;4.54;57.23
60049;BME280;66154;45.544;6.756;2024-03-07T11:44:59;86743.81;;;4.74;63.24
60049;BME280;66154;45.544;6.756;2024-03-07T11:50:00;86738.53;;;4.81;52.01
60049;BME280;66154;45.544;6.756;2024-03-07T11:55:00;86734.66;;;4.93;57.05
60049;BME280;66154;45.544;6.756;2024-03-07T12:00:04;86731.88;;;5.03;58.08
60049;BME280;66154;45.544;6.756;2024-03-07T12:05:11;86730.22;;;5.16;60.69
60049;BME280;66154;45.544;6.756;2024-03-07T12:10:16;86721.84;;;5.28;63.91
60049;BME280;66154;45.544;6.756;2024-03-07T12:15:19;86719.44;;;5.41;62.61
60049;BME280;66154;45.544;6.756;2024-03-07T12:20:21;86708.09;;;5.51;63.70
60049;BME280;66154;45.544;6.756;2024-03-07T12:25:31;86708.66;;;5.62;64.64
60049;BME280;66154;45.544;6.756;2024-03-07T12:30:33;86690.91;;;5.77;61.53
60049;BME280;66154;45.544;6.756;2024-03-07T12:35:34;86688.44;;;5.93;56.85
60049;BME280;66154;45.544;6.756;2024-03-07T12:40:35;86687.84;;;6.05;63.86
60049;BME280;66154;45.544;6.756;2024-03-07T12:45:37;86684.16;;;6.22;60.92
60049;BME280;66154;45.544;6.756;2024-03-07T12:50:38;86678.34;;;6.54;45.37
60049;BME280;66154;45.544;6.756;2024-03-07T12:55:41;86677.25;;;7.55;65.46
60049;BME280;66154;45.544;6.756;2024-03-07T13:00:42;86670.59;;;9.47;72.10
60049;BME280;66154;45.544;6.756;2024-03-07T13:05:44;86659.50;;;11.63;72.22
60049;BME280;66154;45.544;6.756;2024-03-07T13:10:44;86659.03;;;13.49;69.29
60049;BME280;66154;45.544;6.756;2024-03-07T13:15:45;86649.44;;;15.11;70.93
60049;BME280;66154;45.544;6.756;2024-03-07T13:20:47;86647.84;;;16.42;79.76
60049;BME280;66154;45.544;6.756;2024-03-07T13:25:48;86646.03;;;16.88;70.26
60049;BME280;66154;45.544;6.756;2024-03-07T13:30:49;86645.13;;;16.71;68.71
60049;BME280;66154;45.544;6.756;2024-03-07T13:35:49;86647.97;;;16.32;72.94
60049;BME280;66154;45.544;6.756;2024-03-07T13:40:50;86643.25;;;16.22;72.52
60049;BME280;66154;45.544;6.756;2024-03-07T13:45:50;86636.16;;;16.33;71.74
60049;BME280;66154;45.544;6.756;2024-03-07T13:50:51;86630.19;;;16.53;72.48
60049;BME280;66154;45.544;6.756;2024-03-07T14:01:39;86627.72;;;17.10;72.42
60049;BME280;66154;45.544;6.756;2024-03-07T14:33:32;86586.31;;;19.07;68.06
60049;BME280;66154;45.544;6.756;2024-03-07T14:38:52;86588.81;;;19.38;69.37
60049;BME280;66154;45.544;6.756;2024-03-07T14:43:54;86582.53;;;19.47;73.22
60049;BME280;66154;45.544;6.756;2024-03-07T14:48:54;86591.78;;;19.51;72.46
60049;BME280;66154;45.544;6.756;2024-03-07T14:53:55;86583.03;;;19.56;70.65
60049;BME280;66154;45.544;6.756;2024-03-07T14:58:55;86584.72;;;19.48;71.35
60049;BME280;66154;45.544;6.756;2024-03-07T15:03:57;86582.19;;;19.17;69.95
60049;BME280;66154;45.544;6.756;2024-03-07T15:08:58;86583.56;;;17.64;53.54
60049;BME280;66154;45.544;6.756;2024-03-07T15:13:59;86583.66;;;15.68;62.86
60049;BME280;66154;45.544;6.756;2024-03-07T15:19:01;86584.84;;;13.94;61.30
60049;BME280;66154;45.544;6.756;2024-03-07T15:24:01;86572.97;;;12.55;59.53
60049;BME280;66154;45.544;6.756;2024-03-07T15:29:03;86563.66;;;11.51;47.52
60049;BME280;66154;45.544;6.756;2024-03-07T15:34:05;86561.47;;;10.70;58.28
60049;BME280;66154;45.544;6.756;2024-03-07T15:39:07;86559.09;;;9.98;60.40
60049;BME280;66154;45.544;6.756;2024-03-07T15:44:19;86557.81;;;9.35;51.59
60049;BME280;66154;45.544;6.756;2024-03-07T15:49:20;86565.72;;;8.97;58.47
60049;BME280;66154;45.544;6.756;2024-03-07T15:54:21;86557.03;;;8.62;57.57
60049;BME280;66154;45.544;6.756;2024-03-07T15:59:24;86555.00;;;8.29;53.03
60049;BME280;66154;45.544;6.756;2024-03-07T16:04:24;86553.53;;;7.99;60.45
60049;BME280;66154;45.544;6.756;2024-03-07T16:09:25;86543.19;;;7.67;57.52
60049;BME280;66154;45.544;6.756;2024-03-07T16:14:25;86551.72;;;7.38;59.49
60049;BME280;66154;45.544;6.756;2024-03-07T16:19:26;86547.84;;;7.14;58.99
60049;BME280;66154;45.544;6.756;2024-03-07T16:24:26;86557.75;;;6.91;57.81
60049;BME280;66154;45.544;6.756;2024-03-07T16:29:27;86560.84;;;6.70;59.54
60049;BME280;66154;45.544;6.756;2024-03-07T16:34:27;86563.19;;;6.48;59.70
60049;BME280;66154;45.544;6.756;2024-03-07T16:39:28;86560.69;;;6.25;58.84
60049;BME280;66154;45.544;6.756;2024-03-07T16:44:31;86562.59;;;6.05;57.03
60049;BME280;66154;45.544;6.756;2024-03-07T16:49:32;86566.69;;;5.86;58.32
60049;BME280;66154;45.544;6.756;2024-03-07T16:54:33;86566.28;;;5.68;57.64
60049;BME280;66154;45.544;6.756;2024-03-07T16:59:39;86561.38;;;5.50;59.11
60049;BME280;66154;45.544;6.756;2024-03-07T17:04:39;86559.09;;;5.33;55.57
60049;BME280;66154;45.544;6.756;2024-03-07T17:09:40;86560.47;;;5.18;55.25
60049;BME280;66154;45.544;6.756;2024-03-07T17:14:41;86567.47;;;5.01;57.19
60049;BME280;66154;45.544;6.756;2024-03-07T17:19:44;86575.16;;;4.85;58.54
60049;BME280;66154;45.544;6.756;2024-03-07T17:24:44;86576.84;;;4.72;57.35
60049;BME280;66154;45.544;6.756;2024-03-07T17:29:46;86580.47;;;4.55;59.82
60049;BME280;66154;45.544;6.756;2024-03-07T17:34:47;86577.72;;;4.39;53.75
60049;BME280;66154;45.544;6.756;2024-03-07T17:39:48;86584.59;;;4.26;57.49
60049;BME280;66154;45.544;6.756;2024-03-07T17:44:53;86591.44;;;4.13;54.82
60049;BME280;66154;45.544;6.756;2024-03-07T17:49:55;86595.69;;;4.00;58.95
60049;BME280;66154;45.544;6.756;2024-03-07T17:54:55;86598.44;;;3.89;59.43
60049;BME280;66154;45.544;6.756;2024-03-07T17:59:56;86602.28;;;3.78;56.58
60049;BME280;66154;45.544;6.756;2024-03-07T18:04:58;86597.16;;;3.70;56.27
60049;BME280;66154;45.544;6.756;2024-03-07T18:09:59;86603.56;;;3.62;57.61
60049;BME280;66154;45.544;6.756;2024-03-07T18:14:59;86607.03;;;3.52;57.95
60049;BME280;66154;45.544;6.756;2024-03-07T18:20:00;86604.13;;;3.43;55.68
60049;BME280;66154;45.544;6.756;2024-03-07T18:25:04;86599.81;;;3.33;57.82
60049;BME280;66154;45.544;6.756;2024-03-07T18:30:05;86606.19;;;3.25;57.43
60049;BME280;66154;45.544;6.756;2024-03-07T18:35:11;86599.22;;;3.15;55.11
60049;BME280;66154;45.544;6.756;2024-03-07T18:40:13;86604.13;;;3.06;57.87
60049;BME280;66154;45.544;6.756;2024-03-07T18:45:22;86592.00;;;2.96;57.31
60049;BME280;66154;45.544;6.756;2024-03-07T18:50:26;86587.97;;;2.88;58.82
60049;BME280;66154;45.544;6.756;2024-03-07T18:55:27;86584.72;;;2.81;57.86
60049;BME280;66154;45.544;6.756;2024-03-07T19:00:31;86577.00;;;2.73;58.19
60049;BME280;66154;45.544;6.756;2024-03-07T19:05:33;86567.41;;;2.67;56.42
60049;BME280;66154;45.544;6.756;2024-03-07T19:10:34;86571.91;;;2.59;60.01
60049;BME280;66154;45.544;6.756;2024-03-07T19:15:34;86577.16;;;2.52;58.96
60049;BME280;66154;45.544;6.756;2024-03-07T19:20:36;86580.50;;;2.49;57.47
60049;BME280;66154;45.544;6.756;2024-03-07T19:25:40;86579.81;;;2.42;59.16
60049;BME280;66154;45.544;6.756;2024-03-07T19:30:45;86581.69;;;2.38;57.97
60049;BME280;66154;45.544;6.756;2024-03-07T19:35:47;86576.91;;;2.36;60.68
60049;BME280;66154;45.544;6.756;2024-03-07T19:40:50;86576.19;;;2.32;58.19
60049;BME280;66154;45.544;6.756;2024-03-07T19:45:51;86579.91;;;2.28;56.90
60049;BME280;66154;45.544;6.756;2024-03-07T19:50:52;86578.88;;;2.22;56.56
60049;BME280;66154;45.544;6.756;2024-03-07T19:55:54;86580.00;;;2.17;58.63
60049;BME280;66154;45.544;6.756;2024-03-07T20:00:54;86580.06;;;2.10;50.97
60049;BME280;66154;45.544;6.756;2024-03-07T20:05:56;86578.59;;;2.06;55.35
60049;BME280;66154;45.544;6.756;2024-03-07T20:10:56;86580.84;;;2.00;57.11
60049;BME280;66154;45.544;6.756;2024-03-07T20:15:58;86574.19;;;1.96;56.79
60049;BME280;66154;45.544;6.756;2024-03-07T20:20:58;86579.06;;;1.87;54.08
60049;BME280;66154;45.544;6.756;2024-03-07T20:26:02;86572.84;;;1.77;56.57
60049;BME280;66154;45.544;6.756;2024-03-07T20:31:03;86571.78;;;1.67;58.51
60049;BME280;66154;45.544;6.756;2024-03-07T20:36:08;86571.44;;;1.62;59.80
60049;BME280;66154;45.544;6.756;2024-03-07T20:41:08;86578.84;;;1.56;57.95
60049;BME280;66154;45.544;6.756;2024-03-07T20:46:11;86582.19;;;1.53;56.48
60049;BME280;66154;45.544;6.756;2024-03-07T20:51:11;86578.13;;;1.52;58.08
60049;BME280;66154;45.544;6.756;2024-03-07T20:56:13;86583.31;;;1.49;56.61
60049;BME280;66154;45.544;6.756;2024-03-07T21:01:13;86584.47;;;1.44;55.78
60049;BME280;66154;45.544;6.756;2024-03-07T21:06:14;86578.19;;;1.38;56.37
60049;BME280;66154;45.544;6.756;2024-03-07T21:11:23;86579.69;;;1.32;57.52
60049;BME280;66154;45.544;6.756;2024-03-07T21:16:26;86581.94;;;1.27;59.22
60049;BME280;66154;45.544;6.756;2024-03-07T21:21:28;86580.09;;;1.20;58.65
60049;BME280;66154;45.544;6.756;2024-03-07T21:26:28;86572.38;;;1.13;57.99
60049;BME280;66154;45.544;6.756;2024-03-07T21:31:29;86564.25;;;1.08;56.99
60049;BME280;66154;45.544;6.756;2024-03-07T21:36:29;86566.50;;;1.02;57.26
60049;BME280;66154;45.544;6.756;2024-03-07T21:41:34;86563.53;;;1.00;56.93
60049;BME280;66154;45.544;6.756;2024-03-07T21:46:39;86562.81;;;0.96;54.85
60049;BME280;66154;45.544;6.756;2024-03-07T21:51:45;86560.56;;;0.94;56.22
60049;BME280;66154;45.544;6.756;2024-03-07T21:56:46;86556.91;;;0.88;57.91
60049;BME280;66154;45.544;6.756;2024-03-07T22:01:48;86547.31;;;0.82;57.32
60049;BME280;66154;45.544;6.756;2024-03-07T22:06:48;86541.78;;;0.76;58.71
60049;BME280;66154;45.544;6.756;2024-03-07T22:11:50;86537.72;;;0.72;57.19
60049;BME280;66154;45.544;6.756;2024-03-07T22:16:51;86534.75;;;0.73;56.92
60049;BME280;66154;45.544;6.756;2024-03-07T22:21:52;86525.16;;;0.74;57.21
60049;BME280;66154;45.544;6.756;2024-03-07T22:26:52;86529.97;;;0.72;56.44
60049;BME280;66154;45.544;6.756;2024-03-07T22:31:55;86522.19;;;0.72;56.16
60049;BME280;66154;45.544;6.756;2024-03-07T22:36:55;86517.78;;;0.69;58.21
60049;BME280;66154;45.544;6.756;2024-03-07T22:41:57;86513.72;;;0.64;58.71
60049;BME280;66154;45.544;6.756;2024-03-07T22:46:58;86504.50;;;0.60;56.59
60049;BME280;66154;45.544;6.756;2024-03-07T22:51:59;86506.38;;;0.56;56.52
60049;BME280;66154;45.544;6.756;2024-03-07T22:57:00;86500.84;;;0.54;57.31
60049;BME280;66154;45.544;6.756;2024-03-07T23:02:00;86497.16;;;0.48;58.39
60049;BME280;66154;45.544;6.756;2024-03-07T23:07:02;86493.81;;;0.44;57.68
60049;BME280;66154;45.544;6.756;2024-03-07T23:12:05;86485.31;;;0.47;57.00
60049;BME280;66154;45.544;6.756;2024-03-07T23:17:09;86485.31;;;0.47;57.43
60049;BME280;66154;45.544;6.756;2024-03-07T23:22:11;86480.13;;;0.47;56.41
60049;BME280;66154;45.544;6.756;2024-03-07T23:27:11;86476.09;;;0.46;57.24
60049;BME280;66154;45.544;6.756;2024-03-07T23:32:12;86475.38;;;0.42;57.24
60049;BME280;66154;45.544;6.756;2024-03-07T23:37:12;86472.03;;;0.41;55.73
60049;BME280;66154;45.544;6.756;2024-03-07T23:42:14;86472.03;;;0.41;57.38
60049;BME280;66154;45.544;6.756;2024-03-07T23:47:15;86474.25;;;0.36;56.56
60049;BME280;66154;45.544;6.756;2024-03-07T23:52:16;86469.13;;;0.29;56.56
60049;BME280;66154;45.544;6.756;2024-03-07T23:57:16;86468.75;;;0.23;55.10
